Terminal Aerodrome Forecast
Issued by NWS

Home | Current Version | Previous Version | Graphics & Text | Print | Product List | Glossary On
Versions: 1 2 3 4 5 6 7 8 9 10 11 12
000
FTUS43 KOAX 191700
TAFCDR
TAF
KCDR 191723Z 1918/2018 VRB05KT P6SM SKC
     FM192200 07008KT P6SM SKC
     FM200600 14005KT P6SM SKC=

USA.gov is the U.S. government's official web portal to all federal, state and local government web resources and services.